Latest Weather Observations for PORTABLE RFSNSW53

IDN60801

Issued at 9:22 am EST Tuesday 21 May 2019 (issued every 10 minutes, with the page automatically refreshed every 10 minutes)

About weather observations | Map of weather stations | Latest weather observations for NSW | Other Formats
Station Details ID: 250096 Name: PORTABLE RFSNSW53 Lat: -34.44 Lon: 146.90 Height: 205.0 m
Data from the previous 72 hours. | See also: Recent months for locations in New South Wales
Date/Time
EST
Temp
°C
App
Temp
°C
Dew
Point
°C
Rel
Hum
%
Delta-T
°C
Wind Press
QNH
hPa
Press
MSL
hPa
Rain since
9am
mm
Dir  Spd
km/h
Gust
km/h
Spd
kts
Gust
kts
20/04:50am 12.4 9.0 7.8 73 2.3 NE 15 17 8 9 - - 0.0
20/04:40am 12.4 8.6 7.7 73 2.3 NE 17 17 9 9 - - 0.0
20/04:30am 12.3 8.9 7.8 74 2.2 NE 15 17 8 9 - - 0.0
20/04:20am 12.5 8.8 7.8 73 2.3 NE 17 17 9 9 - - 0.0
20/04:10am 12.6 9.2 7.8 72 2.4 NNE 15 17 8 9 - - 0.0
20/04:00am 12.6 10.0 7.7 72 2.4 N 11 13 6 7 - - 0.0
20/03:50am 13.3 10.4 8.0 70 2.6 NE 13 17 7 9 - - 0.0
20/03:40am 13.5 10.2 7.9 69 2.8 NE 15 17 8 9 - - 0.0
20/03:30am 13.6 10.6 7.9 68 2.8 NE 13 15 7 8 - - 0.0
20/03:20am 13.6 10.6 7.9 68 2.8 NE 13 15 7 8 - - 0.0
20/03:10am 13.5 10.5 7.8 68 2.8 NE 13 15 7 8 - - 0.0
20/03:00am 13.0 10.4 7.9 71 2.5 NE 11 13 6 7 - - 0.0
20/02:50am 13.2 10.6 7.9 70 2.6 NE 11 11 6 6 - - 0.0
20/02:40am 12.8 10.2 7.6 70 2.6 NE 11 13 6 7 - - 0.0
20/02:30am 12.5 10.3 7.8 73 2.3 NE 9 11 5 6 - - 0.0
20/02:20am 12.5 9.9 7.8 73 2.3 NE 11 11 6 6 - - 0.0
20/02:10am 12.6 10.7 7.7 72 2.4 NE 7 9 4 5 - - 0.0
20/02:00am 12.5 10.7 7.8 73 2.3 NE 7 9 4 5 - - 0.0
20/01:50am 13.0 11.2 8.0 71 2.5 NE 7 7 4 4 - - 0.0
20/01:40am 13.1 11.3 8.0 71 2.5 NE 7 9 4 5 - - 0.0
 
Date/Time
EST
Temp
°C
App
Temp
°C
Dew
Point
°C
Rel
Hum
%
Delta-T
°C
Wind Press
QNH
hPa
Press
MSL
hPa
Rain since
9am
mm
Dir  Spd
km/h
Gust
km/h
Spd
kts
Gust
kts
19/10:40am 16.4 12.8 8.2 58 4.2 NE 17 19 9 10 - - 0.0
19/10:30am 16.4 12.8 8.4 59 4.1 NE 17 19 9 10 - - 0.0
19/10:20am 16.4 12.9 8.6 60 4.0 NE 17 19 9 10 - - 0.0
19/10:10am 15.5 12.3 8.4 62 3.6 NE 15 19 8 10 - - 0.0
19/10:00am 14.5 10.8 7.9 64 3.3 NE 17 19 9 10 - - 0.0
19/09:50am 14.1 10.8 7.9 66 3.1 NE 15 17 8 9 - - 0.0
19/09:40am 13.6 10.2 7.7 67 2.9 NE 15 17 8 9 - - 0.0
19/09:30am 13.3 10.3 7.6 68 2.8 NE 13 17 7 9 - - 0.0
19/09:20am 13.0 9.9 7.4 69 2.8 NE 13 17 7 9 - - 0.0
19/09:10am 12.5 9.0 7.4 71 2.5 NE 15 19 8 10 - - 0.0
19/09:00am 12.0 8.1 7.3 73 2.3 ENE 17 20 9 11 - - 0.0
19/08:50am 11.8 8.3 7.2 73 2.2 ENE 15 17 8 9 - - 0.0
19/08:40am 11.5 8.3 7.0 74 2.2 ENE 13 15 7 8 - - 0.0
19/08:30am 11.4 7.5 6.9 74 2.2 ENE 17 20 9 11 - - 0.0
19/08:20am 11.8 7.5 6.8 71 2.4 NE 19 20 10 11 - - 0.0
19/08:10am 11.9 8.7 6.7 70 2.5 NE 13 17 7 9 - - 0.0
19/08:00am 11.4 8.5 6.6 72 2.3 NE 11 15 6 8 - - 0.0
19/07:50am 11.0 9.0 6.4 73 2.2 ENE 6 7 3 4 - - 0.0
19/07:40am 10.7 9.2 6.8 77 1.9 WNW 4 6 2 3 - - 0.0
19/07:30am 10.8 8.9 6.8 76 1.9 NW 6 11 3 6 - - 0.0
19/07:20am 10.8 7.1 6.5 75 2.0 ENE 15 19 8 10 - - 0.0
19/07:10am 10.4 6.3 6.4 76 1.9 ENE 17 19 9 10 - - 0.0
19/07:00am 10.2 6.5 6.4 77 1.8 ENE 15 15 8 8 - - 0.0
19/06:50am 10.4 7.5 6.3 76 1.9 NE 11 15 6 8 - - 0.0
19/06:40am 10.1 7.9 6.2 77 1.8 NE 7 11 4 6 - - 0.0
19/06:30am 10.1 8.1 6.1 76 1.9 ENE 6 7 3 4 - - 0.0
19/06:20am 9.9 8.2 6.1 77 1.8 NNE 4 6 2 3 - - 0.0
19/06:10am 10.0 8.3 5.9 75 1.9 NNW 4 6 2 3 - - 0.0
19/06:00am 10.4 8.7 5.9 73 2.1 N 4 6 2 3 - - 0.0
19/05:50am 10.4 8.3 5.8 73 2.1 ENE 6 7 3 4 - - 0.0
19/05:40am 8.1 5.3 5.3 82 1.3 ENE 9 11 5 6 - - 0.0
19/05:30am 6.1 3.7 4.4 89 0.7 NE 6 6 3 3 - - 0.0
19/05:20am 6.1 3.7 4.4 89 0.7 NE 6 6 3 3 - - 0.0
19/05:10am 6.1 4.5 4.4 89 0.7 NE 2 4 1 2 - - 0.0
19/05:00am 6.8 5.3 4.9 88 0.8 ENE 2 4 1 2 - - 0.0
19/04:50am 7.1 5.7 5.4 89 0.8 SE 2 2 1 1 - - 0.0
19/04:40am 7.4 6.0 5.5 88 0.9 SE 2 4 1 2 - - 0.0
19/04:30am 7.4 6.0 5.5 88 0.9 S 2 4 1 2 - - 0.0
19/04:20am 7.3 5.9 5.4 88 0.9 SW 2 4 1 2 - - 0.0
19/04:10am 7.4 6.0 5.5 88 0.9 SE 2 2 1 1 - - 0.0
19/04:00am 7.7 6.3 5.5 86 1.0 NNW 2 4 1 2 - - 0.0
19/03:50am 7.7 6.3 5.5 86 1.0 NNW 2 2 1 1 - - 0.0
19/03:40am 7.2 5.4 5.4 88 0.8 N 4 6 2 3 - - 0.0
19/03:30am 7.0 5.1 5.0 87 0.9 NNW 4 6 2 3 - - 0.0
19/03:20am 6.8 4.5 5.0 88 0.8 NW 6 6 3 3 - - 0.0
19/03:10am 6.8 4.5 4.8 87 0.9 WNW 6 6 3 3 - - 0.0
19/03:00am 7.0 4.7 5.0 87 0.9 W 6 6 3 3 - - 0.0
19/02:50am 7.3 5.1 5.2 86 0.9 WNW 6 6 3 3 - - 0.0
19/02:40am 8.5 7.1 5.4 81 1.4 NNE 2 4 1 2 - - 0.0
19/02:30am 9.0 7.7 6.0 81 1.4 N 2 2 1 1 - - 0.0
19/02:20am 8.9 7.5 5.7 80 1.5 NE 2 2 1 1 - - 0.0
19/02:10am 8.1 6.7 5.5 84 1.2 E 2 2 1 1 - - 0.0
19/02:00am 7.5 6.4 5.1 85 1.1 CALM 0 2 0 1 - - 0.0
19/01:50am 7.3 5.4 5.0 85 1.0 NW 4 4 2 2 - - 0.0
19/01:40am 7.5 5.6 5.0 84 1.1 WNW 4 4 2 2 - - 0.0
19/01:30am 7.6 6.1 5.2 85 1.1 WNW 2 4 1 2 - - 0.0
19/01:20am 7.9 6.5 5.4 84 1.1 W 2 4 1 2 - - 0.0
19/01:10am 7.9 6.5 5.6 85 1.0 W 2 2 1 1 - - 0.0
19/01:00am 8.2 6.8 5.5 83 1.2 WNW 2 2 1 1 - - 0.0
19/12:50am 8.6 7.2 5.7 82 1.3 W 2 2 1 1 - - 0.0
19/12:40am 8.9 7.6 6.2 83 1.3 W 2 2 1 1 - - 0.0
19/12:30am 9.1 7.8 5.8 80 1.5 E 2 2 1 1 - - 0.0
19/12:20am 9.5 7.8 6.0 79 1.6 SSE 4 4 2 2 - - 0.0
19/12:10am 9.7 8.0 6.0 78 1.7 SSE 4 4 2 2 - - 0.0
19/12:00am 10.1 8.4 5.9 75 2.0 S 4 4 2 2 - - 0.0
 
Date/Time
EST
Temp
°C
App
Temp
°C
Dew
Point
°C
Rel
Hum
%
Delta-T
°C
Wind Press
QNH
hPa
Press
MSL
hPa
Rain since
9am
mm
Dir  Spd
km/h
Gust
km/h
Spd
kts
Gust
kts
18/11:50pm 10.4 9.1 6.0 74 2.1 ESE 2 2 1 1 - - 0.0
18/11:40pm 10.1 9.2 5.9 75 2.0 CALM 0 2 0 1 - - 0.0
18/11:30pm 9.9 8.7 6.3 78 1.7 NW 2 2 1 1 - - 0.0
18/11:20pm 9.5 7.8 5.9 78 1.7 WNW 4 4 2 2 - - 0.0
18/11:10pm 9.0 7.3 5.7 80 1.5 WNW 4 4 2 2 - - 0.0
18/11:00pm 8.4 6.6 5.5 82 1.3 WNW 4 6 2 3 - - 0.0
18/10:50pm 8.3 6.0 5.0 80 1.5 WNW 6 6 3 3 - - 0.0
18/10:40pm 8.6 6.2 5.2 79 1.5 WNW 7 7 4 4 - - 0.0
18/10:30pm 8.9 6.7 5.2 77 1.7 NW 6 7 3 4 - - 0.0
18/10:20pm 9.0 7.5 5.2 77 1.7 N 2 4 1 2 - - 0.0
18/10:10pm 9.1 7.7 5.3 77 1.7 NE 2 2 1 1 - - 0.0
18/10:00pm 9.3 7.9 5.3 76 1.8 NNE 2 2 1 1 - - 0.0
18/09:50pm 9.9 8.5 5.4 73 2.1 E 2 4 1 2 - - 0.0
18/09:40pm 10.8 8.8 6.2 73 2.2 ESE 6 7 3 4 - - 0.0
18/09:30pm 11.9 9.7 6.0 67 2.8 ESE 7 9 4 5 - - 0.0
18/09:20pm 12.0 9.8 6.1 67 2.8 ESE 7 9 4 5 - - 0.0
18/09:10pm 12.0 10.4 6.4 68 2.7 SE 4 6 2 3 - - 0.0
18/09:00pm 12.6 11.4 6.3 65 3.0 NE 2 2 1 1 - - 0.0
18/08:50pm 13.5 11.4 6.7 63 3.3 ESE 7 7 4 4 - - 0.0
18/08:40pm 14.1 12.0 6.8 61 3.6 SE 7 7 4 4 - - 0.0
18/08:30pm 14.5 11.9 6.3 58 4.0 SE 9 9 5 5 - - 0.0
18/08:20pm 14.6 12.1 6.4 58 4.0 SE 9 9 5 5 - - 0.0
18/08:00pm 15.8 13.2 5.9 51 4.8 SE 9 11 5 6 - - 0.0
18/07:50pm 15.4 13.2 6.4 55 4.4 SE 7 7 4 4 - - 0.0
18/07:40pm 15.5 12.9 6.1 53 4.6 SE 9 9 5 5 - - 0.0
18/07:30pm 15.0 12.4 6.0 55 4.4 SE 9 11 5 6 - - 0.0
18/07:20pm 14.1 11.5 5.9 57 3.9 SE 9 9 5 5 - - 0.0
18/07:10pm 13.5 11.3 6.4 62 3.4 SE 7 9 4 5 - - 0.0
18/07:00pm 13.5 10.9 6.0 60 3.6 SE 9 9 5 5 - - 0.0
18/06:50pm 13.7 11.3 5.1 56 4.1 SE 7 9 4 5 - - 0.0
18/06:40pm 13.4 11.1 5.9 60 3.6 SE 7 7 4 4 - - 0.0
18/06:30pm 14.4 12.5 6.5 59 3.9 SE 6 7 3 4 - - 0.0
18/06:20pm 15.2 13.2 6.4 55 4.3 SE 6 7 3 4 - - 0.0
18/06:10pm 16.9 14.6 4.9 45 5.8 SE 6 7 3 4 - - 0.0
18/06:00pm 18.1 15.8 5.6 44 6.2 ESE 7 9 4 5 - - 0.0
18/05:50pm 18.4 15.9 4.8 40 6.6 ESE 7 7 4 4 - - 0.0
18/05:40pm 18.7 16.2 5.0 40 6.7 ESE 7 7 4 4 - - 0.0
18/05:30pm 19.0 16.5 5.0 39 6.9 ESE 7 7 4 4 - - 0.0
18/05:20pm 19.2 16.8 5.2 39 6.9 ESE 7 7 4 4 - - 0.0
18/05:10pm 19.9 17.2 5.4 38 7.2 ESE 9 11 5 6 - - 0.0
18/05:00pm 20.5 18.2 5.6 37 7.5 SE 7 9 4 5 - - 0.0
18/04:50pm 20.9 18.2 5.4 36 7.7 SE 9 9 5 5 - - 0.0
18/04:40pm 21.2 18.4 5.3 35 7.9 SE 9 13 5 7 - - 0.0
18/04:30pm 21.5 18.3 5.3 34 8.1 SE 11 13 6 7 - - 0.0
18/04:20pm 21.7 18.5 5.0 33 8.3 SE 11 13 6 7 - - 0.0
18/04:10pm 21.8 18.6 5.1 33 8.3 SE 11 13 6 7 - - 0.0
18/04:00pm 22.0 18.8 5.2 33 8.4 SE 11 15 6 8 - - 0.0
18/03:50pm 22.0 18.4 5.0 33 8.5 SSE 13 15 7 8 - - 0.0
18/03:40pm 22.2 18.9 4.8 32 8.7 S 11 15 6 8 - - 0.0
18/03:30pm 22.4 19.6 5.2 32 8.6 S 9 13 5 7 - - 0.0
18/03:20pm 22.4 19.2 5.1 32 8.7 SSE 11 15 6 8 - - 0.0
18/03:10pm 22.4 18.8 4.9 32 8.7 SE 13 15 7 8 - - 0.0
18/03:00pm 22.7 19.6 5.5 32 8.7 SSE 11 15 6 8 - - 0.0
18/02:50pm 22.5 19.3 5.1 32 8.7 SE 11 15 6 8 - - 0.0
18/02:40pm 22.7 20.0 5.4 32 8.7 SE 9 17 5 9 - - 0.0
18/02:30pm 22.7 20.3 5.3 32 8.8 SSE 7 9 4 5 - - 0.0
18/02:20pm 22.8 19.7 5.6 32 8.7 SSE 11 19 6 10 - - 0.0
18/02:10pm 22.9 20.1 5.3 32 8.9 S 9 17 5 9 - - 0.0
18/02:00pm 22.6 19.5 5.5 33 8.7 SSW 11 15 6 8 - - 0.0
18/01:50pm 22.5 19.0 5.5 33 8.6 SSW 13 17 7 9 - - 0.0
18/01:40pm 22.0 18.8 5.3 33 8.4 S 11 15 6 8 - - 0.0
18/01:30pm 22.6 18.8 5.6 33 8.6 SSE 15 20 8 11 - - 0.0
18/01:20pm 22.8 19.8 5.8 33 8.7 SE 11 17 6 9 - - 0.0
18/01:10pm 22.4 20.1 5.6 33 8.5 SSW 7 11 4 6 - - 0.0
18/01:00pm 22.1 19.5 6.2 35 8.1 S 9 13 5 7 - - 0.0
18/12:50pm 22.9 19.9 5.9 33 8.7 SSE 11 13 6 7 - - 0.0
18/12:40pm 23.3 21.8 6.7 34 8.6 SW 4 9 2 5 - - 0.0
18/12:30pm 22.7 20.5 6.1 34 8.5 WSW 7 11 4 6 - - 0.0
18/12:20pm 22.5 20.3 6.1 34 8.4 W 7 11 4 6 - - 0.0
18/12:10pm 22.6 20.5 6.0 34 8.5 NW 6 9 3 5 - - 0.0
18/12:00pm 22.4 20.2 6.0 34 8.4 N 7 11 4 6 - - 0.0
18/11:50am 22.1 19.9 6.3 36 8.1 N 7 9 4 5 - - 0.0
18/11:40am 22.0 20.0 6.4 36 8.0 NNE 6 7 3 4 - - 0.0
18/11:30am 21.6 19.4 6.4 37 7.8 NNE 7 9 4 5 - - 0.0
18/11:20am 21.5 19.4 6.5 37 7.7 NNE 7 9 4 5 - - 0.0
18/11:10am 21.1 18.7 6.9 39 7.3 NE 9 13 5 7 - - 0.0
18/11:00am 20.8 18.8 7.1 41 7.1 NE 7 9 4 5 - - 0.0
18/10:50am 20.4 18.2 6.3 40 7.1 NNE 7 11 4 6 - - 0.0
18/10:40am 20.3 18.2 6.5 40 7.0 NE 7 11 4 6 - - 0.0
18/10:30am 19.9 18.1 7.0 43 6.6 ENE 6 7 3 4 - - 0.0
18/10:20am 19.5 17.8 7.4 45 6.2 N 6 6 3 3 - - 0.0
18/10:10am 19.3 17.5 7.2 45 6.2 E 6 9 3 5 - - 0.0
18/10:00am 18.9 17.1 7.1 46 6.0 E 6 7 3 4 - - 0.0
18/09:50am 18.3 16.3 6.9 47 5.8 ENE 7 7 4 4 - - 0.0
18/09:40am 17.8 16.0 7.2 50 5.4 SE 6 6 3 3 - - 0.0
18/09:30am 17.6 16.2 7.1 50 5.3 ESE 4 6 2 3 - - 0.0

Other formats

Comma delimited format used in spreadsheet applications
http://www.bom.gov.au/fwo/IDN60801/IDN60801.99792.axf

JavaScript Object Notation format (JSON) in row-major order
http://www.bom.gov.au/fwo/IDN60801/IDN60801.99792.json

Data quality

Most of these data are generated automatically and are frequently updated. Quality checks on data are not normally performed. It is possible for incorrect values to appear. Refer to information at About Latest Weather Observations and please check the disclaimer before using these data.